SKX5103 SPJC-SPQU
Flight info
| Callsign | SKX5103 |
|---|---|
| Flight time | 1h 1m |
| Altitude | 39000 |
| Route | AKSOL UT222 ASUPA |
| Aircraft | A20N/M-SDE2E3FGHIRWXY/LB1 |
Departure
| Time | 2026-04-25 16:29 |
|---|---|
| Airport | Jorge Chávez International Airport (SPJC) |
Arrival
| Time | 2026-04-25 17:30 |
|---|---|
| Airport | Rodríguez Ballón International Airport (SPQU) |
| Time | Latitude | Longitude | Altitude | Speed | Heading |
|---|---|---|---|---|---|
| 2026-04-25 16:13 | -12.02571 | -77.11942 | 115 ft | 0 kts | 63° |
| 2026-04-25 16:19 | -12.02578 | -77.11955 | 115 ft | 2 kts | 62° |
| 2026-04-25 16:19 | -12.02582 | -77.11963 | 115 ft | 1 kts | 64° |
| 2026-04-25 16:20 | -12.02605 | -77.11981 | 115 ft | 2 kts | 7° |
| 2026-04-25 16:20 | -12.02620 | -77.11980 | 115 ft | 1 kts | 341° |
| 2026-04-25 16:20 | -12.02629 | -77.11976 | 115 ft | 0 kts | 333° |
| 2026-04-25 16:22 | -12.02627 | -77.11977 | 115 ft | 1 kts | 333° |
| 2026-04-25 16:22 | -12.02610 | -77.11985 | 115 ft | 4 kts | 335° |
| 2026-04-25 16:22 | -12.02576 | -77.12002 | 115 ft | 6 kts | 335° |
| 2026-04-25 16:22 | -12.02552 | -77.12021 | 115 ft | 4 kts | 294° |
| 2026-04-25 16:23 | -12.02556 | -77.12062 | 115 ft | 7 kts | 247° |
| 2026-04-25 16:23 | -12.02580 | -77.12122 | 115 ft | 10 kts | 248° |
| 2026-04-25 16:23 | -12.02616 | -77.12196 | 115 ft | 12 kts | 245° |
| 2026-04-25 16:23 | -12.02566 | -77.12262 | 115 ft | 14 kts | 334° |
| 2026-04-25 16:24 | -12.02470 | -77.12309 | 115 ft | 15 kts | 333° |
| 2026-04-25 16:24 | -12.02365 | -77.12362 | 115 ft | 17 kts | 333° |
| 2026-04-25 16:24 | -12.02252 | -77.12418 | 115 ft | 18 kts | 335° |
| 2026-04-25 16:24 | -12.02134 | -77.12476 | 115 ft | 19 kts | 333° |
| 2026-04-25 16:25 | -12.02008 | -77.12537 | 115 ft | 20 kts | 334° |
| 2026-04-25 16:25 | -12.01921 | -77.12581 | 115 ft | 21 kts | 333° |
| 2026-04-25 16:25 | -12.01740 | -77.12671 | 115 ft | 21 kts | 335° |
| 2026-04-25 16:25 | -12.01600 | -77.12738 | 115 ft | 22 kts | 339° |
| 2026-04-25 16:26 | -12.01458 | -77.12808 | 115 ft | 22 kts | 333° |
| 2026-04-25 16:26 | -12.01316 | -77.12878 | 115 ft | 21 kts | 321° |
| 2026-04-25 16:26 | -12.01176 | -77.12940 | 115 ft | 21 kts | 330° |
| 2026-04-25 16:26 | -12.01044 | -77.13001 | 115 ft | 20 kts | 332° |
| 2026-04-25 16:27 | -12.00910 | -77.13069 | 115 ft | 21 kts | 333° |
| 2026-04-25 16:27 | -12.00773 | -77.13139 | 115 ft | 22 kts | 333° |
| 2026-04-25 16:27 | -12.00636 | -77.13214 | 115 ft | 19 kts | 313° |
| 2026-04-25 16:27 | -12.00669 | -77.13331 | 115 ft | 18 kts | 244° |
| 2026-04-25 16:28 | -12.00779 | -77.13323 | 115 ft | 19 kts | 153° |
| 2026-04-25 16:28 | -12.01026 | -77.13202 | 115 ft | 72 kts | 154° |
| 2026-04-25 16:28 | -12.01710 | -77.12866 | 116 ft | 140 kts | 154° |
| 2026-04-25 16:28 | -12.02739 | -77.12350 | 202 ft | 183 kts | 155° |
| 2026-04-25 16:29 | -12.03896 | -77.11774 | 853 ft | 181 kts | 155° |
| 2026-04-25 16:29 | -12.04999 | -77.11174 | 1540 ft | 183 kts | 151° |
| 2026-04-25 16:29 | -12.06112 | -77.10510 | 2128 ft | 189 kts | 150° |
| 2026-04-25 16:29 | -12.07282 | -77.09804 | 2562 ft | 205 kts | 149° |
| 2026-04-25 16:30 | -12.08579 | -77.09022 | 2992 ft | 222 kts | 149° |
| 2026-04-25 16:30 | -12.09965 | -77.08188 | 3351 ft | 245 kts | 149° |
| 2026-04-25 16:30 | -12.11499 | -77.07269 | 3831 ft | 263 kts | 148° |
| 2026-04-25 16:30 | -12.13117 | -77.06303 | 4472 ft | 275 kts | 148° |
| 2026-04-25 16:31 | -12.14630 | -77.05102 | 5327 ft | 277 kts | 134° |
| 2026-04-25 16:31 | -12.15940 | -77.03660 | 6186 ft | 279 kts | 130° |
| 2026-04-25 16:31 | -12.17236 | -77.02160 | 6994 ft | 284 kts | 130° |
| 2026-04-25 16:31 | -12.18541 | -77.00670 | 7790 ft | 287 kts | 131° |
| 2026-04-25 16:32 | -12.19910 | -76.99139 | 8550 ft | 291 kts | 131° |
| 2026-04-25 16:32 | -12.21274 | -76.97636 | 9250 ft | 295 kts | 132° |
| 2026-04-25 16:32 | -12.22686 | -76.96092 | 9938 ft | 299 kts | 132° |
| 2026-04-25 16:32 | -12.24118 | -76.94535 | 10530 ft | 306 kts | 132° |
| 2026-04-25 16:33 | -12.25617 | -76.92906 | 10851 ft | 323 kts | 132° |
| 2026-04-25 16:33 | -12.27193 | -76.91201 | 11136 ft | 339 kts | 132° |
| 2026-04-25 16:33 | -12.28871 | -76.89384 | 11405 ft | 355 kts | 132° |
| 2026-04-25 16:33 | -12.30599 | -76.87514 | 11720 ft | 368 kts | 132° |
| 2026-04-25 16:34 | -12.32408 | -76.85561 | 12181 ft | 372 kts | 132° |
| 2026-04-25 16:34 | -12.34199 | -76.83626 | 12610 ft | 373 kts | 132° |
| 2026-04-25 16:34 | -12.35986 | -76.81694 | 13427 ft | 374 kts | 132° |
| 2026-04-25 16:34 | -12.37783 | -76.79752 | 13893 ft | 378 kts | 132° |
| 2026-04-25 16:35 | -12.39607 | -76.77780 | 14439 ft | 380 kts | 132° |
| 2026-04-25 16:35 | -12.41454 | -76.75784 | 15061 ft | 383 kts | 132° |
| 2026-04-25 16:35 | -12.43283 | -76.73806 | 15530 ft | 385 kts | 132° |
| 2026-04-25 16:35 | -12.45141 | -76.71795 | 16035 ft | 388 kts | 132° |
| 2026-04-25 16:36 | -12.47000 | -76.69785 | 16524 ft | 391 kts | 132° |
| 2026-04-25 16:36 | -12.47651 | -76.69080 | 16689 ft | 392 kts | 132° |
| 2026-04-25 16:36 | -12.50781 | -76.65695 | 17442 ft | 395 kts | 132° |
| 2026-04-25 16:36 | -12.52678 | -76.63641 | 17983 ft | 397 kts | 132° |
| 2026-04-25 16:37 | -12.54590 | -76.61571 | 18464 ft | 400 kts | 132° |
| 2026-04-25 16:37 | -12.56506 | -76.59495 | 18894 ft | 403 kts | 132° |
| 2026-04-25 16:37 | -12.58476 | -76.57361 | 19344 ft | 405 kts | 131° |
| 2026-04-25 16:37 | -12.60413 | -76.55259 | 19769 ft | 408 kts | 132° |
| 2026-04-25 16:38 | -12.62368 | -76.53140 | 20184 ft | 410 kts | 132° |
| 2026-04-25 16:38 | -12.64320 | -76.51025 | 20650 ft | 412 kts | 132° |
| 2026-04-25 16:38 | -12.66304 | -76.48875 | 21069 ft | 415 kts | 132° |
| 2026-04-25 16:38 | -12.68312 | -76.46699 | 21527 ft | 418 kts | 132° |
| 2026-04-25 16:39 | -12.70296 | -76.44546 | 21944 ft | 421 kts | 132° |
| 2026-04-25 16:39 | -12.72334 | -76.42337 | 22370 ft | 423 kts | 132° |
| 2026-04-25 16:39 | -12.74368 | -76.40131 | 22832 ft | 425 kts | 132° |
| 2026-04-25 16:39 | -12.76395 | -76.37929 | 23263 ft | 427 kts | 132° |
| 2026-04-25 16:40 | -12.78439 | -76.35712 | 23657 ft | 431 kts | 131° |
| 2026-04-25 16:40 | -12.80517 | -76.33449 | 24075 ft | 433 kts | 131° |
| 2026-04-25 16:40 | -12.82583 | -76.31188 | 24485 ft | 435 kts | 131° |
| 2026-04-25 16:40 | -12.84659 | -76.28921 | 24881 ft | 438 kts | 131° |
| 2026-04-25 16:41 | -12.86779 | -76.26606 | 25270 ft | 441 kts | 131° |
| 2026-04-25 16:41 | -12.88207 | -76.25049 | 25510 ft | 443 kts | 131° |
| 2026-04-25 16:41 | -12.93233 | -76.19576 | 26369 ft | 449 kts | 131° |
| 2026-04-25 16:42 | -12.95380 | -76.17239 | 26729 ft | 451 kts | 131° |
| 2026-04-25 16:42 | -12.97532 | -76.14898 | 27092 ft | 453 kts | 131° |
| 2026-04-25 16:42 | -12.99700 | -76.12539 | 27444 ft | 455 kts | 131° |
| 2026-04-25 16:42 | -13.01894 | -76.10147 | 27734 ft | 459 kts | 131° |
| 2026-04-25 16:43 | -13.04084 | -76.07761 | 28048 ft | 461 kts | 131° |
| 2026-04-25 16:43 | -13.06270 | -76.05382 | 28385 ft | 462 kts | 131° |
| 2026-04-25 16:43 | -13.08473 | -76.02979 | 28658 ft | 465 kts | 131° |
| 2026-04-25 16:43 | -13.10689 | -76.00565 | 28932 ft | 467 kts | 131° |
| 2026-04-25 16:44 | -13.12950 | -75.98116 | 29230 ft | 468 kts | 131° |
| 2026-04-25 16:44 | -13.15190 | -75.95689 | 29532 ft | 469 kts | 131° |
| 2026-04-25 16:44 | -13.17415 | -75.93274 | 29897 ft | 467 kts | 131° |
| 2026-04-25 16:44 | -13.19647 | -75.90846 | 30278 ft | 466 kts | 131° |
| 2026-04-25 16:45 | -13.21865 | -75.88426 | 30644 ft | 464 kts | 130° |
| 2026-04-25 16:45 | -13.24063 | -75.86025 | 30994 ft | 463 kts | 130° |
| 2026-04-25 16:45 | -13.26288 | -75.83591 | 31341 ft | 462 kts | 130° |
| 2026-04-25 16:45 | -13.28487 | -75.81187 | 31675 ft | 461 kts | 130° |
| 2026-04-25 16:46 | -13.30675 | -75.78796 | 31983 ft | 460 kts | 130° |
| 2026-04-25 16:46 | -13.32887 | -75.76376 | 32311 ft | 459 kts | 130° |
| 2026-04-25 16:46 | -13.35104 | -75.73964 | 32623 ft | 458 kts | 130° |
| 2026-04-25 16:46 | -13.36554 | -75.72391 | 32801 ft | 458 kts | 130° |
| 2026-04-25 16:47 | -13.39472 | -75.69229 | 33177 ft | 458 kts | 130° |
| 2026-04-25 16:47 | -13.41690 | -75.66821 | 33459 ft | 458 kts | 131° |
| 2026-04-25 16:47 | -13.43909 | -75.64414 | 33737 ft | 458 kts | 130° |
| 2026-04-25 16:47 | -13.46119 | -75.62015 | 34044 ft | 457 kts | 130° |
| 2026-04-25 16:48 | -13.48301 | -75.59646 | 34368 ft | 455 kts | 131° |
| 2026-04-25 16:48 | -13.50513 | -75.57241 | 34663 ft | 454 kts | 131° |
| 2026-04-25 16:48 | -13.52715 | -75.54845 | 34946 ft | 453 kts | 131° |
| 2026-04-25 16:48 | -13.54882 | -75.52490 | 35214 ft | 453 kts | 131° |
| 2026-04-25 16:49 | -13.57082 | -75.50100 | 35491 ft | 452 kts | 131° |
| 2026-04-25 16:49 | -13.59251 | -75.47744 | 35740 ft | 451 kts | 131° |
| 2026-04-25 16:49 | -13.61422 | -75.45384 | 35924 ft | 452 kts | 131° |
| 2026-04-25 16:49 | -13.63646 | -75.42965 | 36093 ft | 453 kts | 131° |
| 2026-04-25 16:50 | -13.65813 | -75.40605 | 36234 ft | 454 kts | 131° |
| 2026-04-25 16:50 | -13.67981 | -75.38244 | 36382 ft | 455 kts | 131° |
| 2026-04-25 16:50 | -13.70148 | -75.35884 | 36495 ft | 456 kts | 131° |
| 2026-04-25 16:50 | -13.72326 | -75.33508 | 36623 ft | 457 kts | 131° |
| 2026-04-25 16:51 | -13.74506 | -75.31117 | 36797 ft | 457 kts | 130° |
| 2026-04-25 16:51 | -13.76659 | -75.28758 | 36966 ft | 457 kts | 131° |
| 2026-04-25 16:51 | -13.78829 | -75.26382 | 37107 ft | 457 kts | 131° |
| 2026-04-25 16:51 | -13.80302 | -75.24770 | 37189 ft | 458 kts | 131° |
| 2026-04-25 16:52 | -13.83211 | -75.21588 | 37341 ft | 459 kts | 131° |
| 2026-04-25 16:52 | -13.85391 | -75.19205 | 37482 ft | 459 kts | 131° |
| 2026-04-25 16:52 | -13.87596 | -75.16798 | 37627 ft | 458 kts | 131° |
| 2026-04-25 16:52 | -13.89772 | -75.14422 | 37661 ft | 460 kts | 131° |
| 2026-04-25 16:53 | -13.96402 | -75.07173 | 37662 ft | 466 kts | 131° |
| 2026-04-25 16:54 | -14.00848 | -75.02312 | 37600 ft | 468 kts | 131° |
| 2026-04-25 16:54 | -14.05305 | -74.97433 | 37619 ft | 468 kts | 131° |
| 2026-04-25 16:55 | -14.09768 | -74.92542 | 37629 ft | 467 kts | 131° |
| 2026-04-25 16:55 | -14.14224 | -74.87684 | 37669 ft | 467 kts | 131° |
| 2026-04-25 16:56 | -14.18689 | -74.82815 | 37656 ft | 467 kts | 131° |
| 2026-04-25 16:56 | -14.23153 | -74.77929 | 37702 ft | 467 kts | 131° |
| 2026-04-25 16:57 | -14.27622 | -74.73025 | 37690 ft | 468 kts | 131° |
| 2026-04-25 16:57 | -14.32076 | -74.68137 | 37715 ft | 467 kts | 131° |
| 2026-04-25 16:58 | -14.36538 | -74.63232 | 37732 ft | 466 kts | 131° |
| 2026-04-25 16:58 | -14.40961 | -74.58362 | 37696 ft | 468 kts | 131° |
| 2026-04-25 16:59 | -14.45426 | -74.53443 | 37705 ft | 468 kts | 131° |
| 2026-04-25 16:59 | -14.49868 | -74.48547 | 37737 ft | 467 kts | 131° |
| 2026-04-25 17:00 | -14.54291 | -74.43671 | 37727 ft | 468 kts | 131° |
| 2026-04-25 17:00 | -14.58768 | -74.38735 | 37717 ft | 468 kts | 131° |
| 2026-04-25 17:01 | -14.63206 | -74.33837 | 37717 ft | 468 kts | 130° |
| 2026-04-25 17:01 | -14.67653 | -74.28898 | 37695 ft | 469 kts | 130° |
| 2026-04-25 17:02 | -14.72099 | -74.23979 | 37717 ft | 469 kts | 131° |
| 2026-04-25 17:02 | -14.76552 | -74.19056 | 37722 ft | 469 kts | 131° |
| 2026-04-25 17:03 | -14.80773 | -74.13973 | 37714 ft | 468 kts | 125° |
| 2026-04-25 17:03 | -14.84557 | -74.08497 | 37725 ft | 467 kts | 122° |
| 2026-04-25 17:04 | -14.88254 | -74.02994 | 37733 ft | 467 kts | 122° |
| 2026-04-25 17:04 | -14.91975 | -73.97460 | 37732 ft | 467 kts | 122° |
| 2026-04-25 17:05 | -14.95673 | -73.91956 | 37733 ft | 468 kts | 123° |
| 2026-04-25 17:05 | -15.01261 | -73.83648 | 37742 ft | 469 kts | 123° |
| 2026-04-25 17:06 | -15.04988 | -73.78108 | 37793 ft | 469 kts | 123° |
| 2026-04-25 17:06 | -15.08714 | -73.72566 | 37793 ft | 469 kts | 123° |
| 2026-04-25 17:07 | -15.12472 | -73.66990 | 37793 ft | 469 kts | 123° |
| 2026-04-25 17:07 | -15.16230 | -73.61426 | 37802 ft | 470 kts | 123° |
| 2026-04-25 17:08 | -15.19975 | -73.55856 | 37814 ft | 470 kts | 123° |
| 2026-04-25 17:08 | -15.23696 | -73.50306 | 37763 ft | 470 kts | 123° |
| 2026-04-25 17:09 | -15.27428 | -73.44727 | 37845 ft | 470 kts | 123° |
| 2026-04-25 17:09 | -15.31147 | -73.39168 | 37823 ft | 470 kts | 123° |
| 2026-04-25 17:10 | -15.34876 | -73.33581 | 37822 ft | 471 kts | 122° |
| 2026-04-25 17:10 | -15.38592 | -73.27988 | 37689 ft | 471 kts | 123° |
| 2026-04-25 17:11 | -15.42306 | -73.22407 | 37697 ft | 469 kts | 123° |
| 2026-04-25 17:11 | -15.44149 | -73.19640 | 37515 ft | 466 kts | 123° |
| 2026-04-25 17:11 | -15.45972 | -73.16903 | 37219 ft | 463 kts | 123° |
| 2026-04-25 17:12 | -15.47799 | -73.14162 | 36920 ft | 460 kts | 123° |
| 2026-04-25 17:12 | -15.49609 | -73.11447 | 36619 ft | 457 kts | 123° |
| 2026-04-25 17:12 | -15.51412 | -73.08740 | 36320 ft | 456 kts | 123° |
| 2026-04-25 17:12 | -15.53215 | -73.06034 | 36020 ft | 455 kts | 123° |
| 2026-04-25 17:13 | -15.55009 | -73.03337 | 35622 ft | 455 kts | 123° |
| 2026-04-25 17:13 | -15.56208 | -73.01535 | 35279 ft | 455 kts | 123° |
| 2026-04-25 17:13 | -15.58588 | -72.97952 | 34516 ft | 455 kts | 123° |
| 2026-04-25 17:13 | -15.60396 | -72.95232 | 33795 ft | 457 kts | 123° |
| 2026-04-25 17:14 | -15.62188 | -72.92536 | 33066 ft | 457 kts | 123° |
| 2026-04-25 17:14 | -15.64009 | -72.89793 | 32350 ft | 458 kts | 123° |
| 2026-04-25 17:14 | -15.65802 | -72.87096 | 31646 ft | 460 kts | 123° |
| 2026-04-25 17:14 | -15.67617 | -72.84362 | 30888 ft | 460 kts | 123° |
| 2026-04-25 17:15 | -15.69444 | -72.81611 | 30087 ft | 461 kts | 123° |
| 2026-04-25 17:15 | -15.71254 | -72.78882 | 29328 ft | 461 kts | 123° |
| 2026-04-25 17:15 | -15.73069 | -72.76144 | 28855 ft | 457 kts | 123° |
| 2026-04-25 17:15 | -15.74859 | -72.73446 | 28375 ft | 454 kts | 123° |
| 2026-04-25 17:16 | -15.76647 | -72.70747 | 27874 ft | 450 kts | 123° |
| 2026-04-25 17:16 | -15.78409 | -72.68087 | 27373 ft | 446 kts | 123° |
| 2026-04-25 17:16 | -15.80146 | -72.65464 | 26868 ft | 442 kts | 123° |
| 2026-04-25 17:16 | -15.81870 | -72.62860 | 26318 ft | 438 kts | 123° |
| 2026-04-25 17:17 | -15.83599 | -72.60246 | 25772 ft | 435 kts | 123° |
| 2026-04-25 17:17 | -15.85282 | -72.57703 | 25305 ft | 430 kts | 123° |
| 2026-04-25 17:17 | -15.86987 | -72.55124 | 24745 ft | 427 kts | 123° |
| 2026-04-25 17:17 | -15.88657 | -72.52598 | 24207 ft | 424 kts | 123° |
| 2026-04-25 17:18 | -15.90316 | -72.50086 | 23695 ft | 420 kts | 123° |
| 2026-04-25 17:18 | -15.91964 | -72.47591 | 23141 ft | 417 kts | 123° |
| 2026-04-25 17:18 | -15.93601 | -72.45114 | 22593 ft | 414 kts | 123° |
| 2026-04-25 17:18 | -15.95203 | -72.42690 | 22121 ft | 410 kts | 123° |
| 2026-04-25 17:19 | -15.96813 | -72.40251 | 21672 ft | 405 kts | 123° |
| 2026-04-25 17:19 | -15.98398 | -72.37849 | 21190 ft | 403 kts | 123° |
| 2026-04-25 17:19 | -15.99989 | -72.35436 | 20713 ft | 401 kts | 123° |
| 2026-04-25 17:19 | -16.01549 | -72.33067 | 20207 ft | 399 kts | 123° |
| 2026-04-25 17:20 | -16.03111 | -72.30683 | 19707 ft | 397 kts | 123° |
| 2026-04-25 17:20 | -16.04670 | -72.28311 | 19245 ft | 395 kts | 123° |
| 2026-04-25 17:20 | -16.06217 | -72.25960 | 18762 ft | 393 kts | 123° |
| 2026-04-25 17:20 | -16.07737 | -72.23650 | 18242 ft | 391 kts | 122° |
| 2026-04-25 17:21 | -16.09274 | -72.21305 | 17777 ft | 388 kts | 122° |
| 2026-04-25 17:21 | -16.10800 | -72.18985 | 17302 ft | 386 kts | 123° |
| 2026-04-25 17:21 | -16.12310 | -72.16706 | 16803 ft | 385 kts | 123° |
| 2026-04-25 17:21 | -16.13838 | -72.14397 | 16269 ft | 385 kts | 123° |
| 2026-04-25 17:22 | -16.15336 | -72.12128 | 15748 ft | 383 kts | 123° |
| 2026-04-25 17:22 | -16.16349 | -72.10591 | 15406 ft | 382 kts | 123° |
| 2026-04-25 17:22 | -16.18322 | -72.07589 | 14771 ft | 378 kts | 123° |
| 2026-04-25 17:22 | -16.19809 | -72.05327 | 14295 ft | 376 kts | 123° |
| 2026-04-25 17:23 | -16.21284 | -72.03080 | 13769 ft | 374 kts | 123° |
| 2026-04-25 17:23 | -16.22749 | -72.00848 | 13311 ft | 371 kts | 123° |
| 2026-04-25 17:23 | -16.24191 | -71.98651 | 12856 ft | 369 kts | 123° |
| 2026-04-25 17:23 | -16.25642 | -71.96439 | 12487 ft | 363 kts | 123° |
| 2026-04-25 17:24 | -16.27047 | -71.94298 | 12344 ft | 350 kts | 123° |
| 2026-04-25 17:24 | -16.28386 | -71.92256 | 12170 ft | 337 kts | 123° |
| 2026-04-25 17:24 | -16.29692 | -71.90263 | 12116 ft | 322 kts | 123° |
| 2026-04-25 17:24 | -16.30916 | -71.88393 | 12186 ft | 309 kts | 124° |
| 2026-04-25 17:25 | -16.32043 | -71.86514 | 11912 ft | 302 kts | 114° |
| 2026-04-25 17:25 | -16.32625 | -71.84475 | 11876 ft | 288 kts | 97° |
| 2026-04-25 17:25 | -16.32777 | -71.82438 | 11835 ft | 277 kts | 92° |
| 2026-04-25 17:25 | -16.32858 | -71.80454 | 11706 ft | 269 kts | 92° |
| 2026-04-25 17:26 | -16.32937 | -71.78551 | 11558 ft | 260 kts | 92° |
| 2026-04-25 17:26 | -16.33026 | -71.76688 | 11420 ft | 251 kts | 93° |
| 2026-04-25 17:26 | -16.33118 | -71.74903 | 11247 ft | 243 kts | 94° |
| 2026-04-25 17:26 | -16.33209 | -71.73164 | 11089 ft | 241 kts | 93° |
| 2026-04-25 17:27 | -16.33302 | -71.71403 | 10737 ft | 244 kts | 94° |
| 2026-04-25 17:27 | -16.33392 | -71.69679 | 10596 ft | 239 kts | 94° |
| 2026-04-25 17:27 | -16.33483 | -71.67956 | 10515 ft | 229 kts | 93° |
| 2026-04-25 17:27 | -16.33539 | -71.66869 | 10257 ft | 225 kts | 95° |
| 2026-04-25 17:28 | -16.33649 | -71.64761 | 9828 ft | 207 kts | 94° |
| 2026-04-25 17:28 | -16.33726 | -71.63312 | 9537 ft | 193 kts | 95° |
| 2026-04-25 17:28 | -16.33797 | -71.61970 | 9296 ft | 179 kts | 95° |
| 2026-04-25 17:28 | -16.33866 | -71.60719 | 8994 ft | 171 kts | 97° |
| 2026-04-25 17:29 | -16.33939 | -71.59475 | 8582 ft | 169 kts | 95° |
| 2026-04-25 17:29 | -16.33990 | -71.58278 | 8313 ft | 161 kts | 94° |
| 2026-04-25 17:29 | -16.34050 | -71.57230 | 8376 ft | 121 kts | 95° |
| 2026-04-25 17:29 | -16.34096 | -71.56490 | 8414 ft | 87 kts | 91° |
| 2026-04-25 17:30 | -16.34118 | -71.55953 | 8428 ft | 59 kts | 94° |
| 2026-04-25 17:30 | -16.34176 | -71.55710 | 8428 ft | 14 kts | 208° |
| 2026-04-25 17:30 | -16.34209 | -71.55797 | 8422 ft | 24 kts | 239° |
| 2026-04-25 17:30 | -16.34246 | -71.55898 | 8416 ft | 6 kts | 167° |
| 2026-04-25 17:31 | -16.34271 | -71.55911 | 8413 ft | 8 kts | 241° |
| 2026-04-25 17:31 | -16.34324 | -71.55994 | 8404 ft | 18 kts | 237° |
| 2026-04-25 17:31 | -16.34377 | -71.56143 | 8390 ft | 25 kts | 272° |
| 2026-04-25 17:31 | -16.34373 | -71.56342 | 8382 ft | 29 kts | 273° |
| 2026-04-25 17:32 | -16.34360 | -71.56557 | 8375 ft | 27 kts | 272° |
| 2026-04-25 17:32 | -16.34399 | -71.56677 | 8363 ft | 1 kts | 223° |
| 2026-04-25 17:32 | -16.34400 | -71.56679 | 8363 ft | 0 kts | 223° |